Westview, Kentucky
Current Conditions -  °F | °C
As of 8:21 AM on Thursday 29 Jan 2015 (Local Time) from KFTK Reporting Station
Scattered Clouds Scattered Clouds  
Wind Chill: 42°   Ceiling: Unl
Heat Index: 48°   Visibility: 10mi
Dew Point: 36°   Wind: 18mph
Humidity: 62%   Direction: 200°SSW
Pressure: 29.91"   Gusts: 26mph
Location:  37.7°N, 86.41°W
Report Text: KFTK 291421Z AUTO 20016G23KT 10SM SCT130 09/02 A2991 RMK AO2
Loading
Personal Weather Stations






























Interactive Weather Map New forecast layout! Learn more

10-Day Weather Forecast

Advertisements
Track Severe Weather on mobile